createdAt,value
2023-03-29T00:02:14.459Z,12.90
2023-03-29T00:04:40.861Z,13.03
2023-03-29T00:07:07.364Z,12.90
2023-03-29T00:09:33.745Z,13.03
2023-03-29T00:12:00.218Z,13.14
2023-03-29T00:14:26.577Z,13.16
2023-03-29T00:16:53.042Z,13.14
2023-03-29T00:19:19.521Z,13.03
2023-03-29T00:21:46.057Z,12.64
2023-03-29T00:24:12.427Z,12.78
2023-03-29T00:26:38.816Z,12.81
2023-03-29T00:29:05.233Z,12.96
2023-03-29T00:31:31.725Z,12.88
2023-03-29T00:33:58.150Z,13.11
2023-03-29T00:36:24.557Z,13.32
2023-03-29T00:38:51.006Z,12.87
2023-03-29T00:41:17.456Z,12.51
2023-03-29T00:43:43.806Z,12.62
2023-03-29T00:46:10.252Z,12.65
2023-03-29T00:48:36.679Z,12.50
2023-03-29T00:51:03.310Z,12.66
2023-03-29T00:53:29.800Z,12.63
2023-03-29T00:55:56.150Z,12.63
2023-03-29T00:58:22.558Z,12.39
2023-03-29T01:00:49.011Z,12.35
2023-03-29T01:03:15.675Z,12.45
2023-03-29T01:05:42.154Z,12.45
2023-03-29T01:08:08.507Z,12.42
2023-03-29T01:10:34.897Z,12.84
2023-03-29T01:13:01.277Z,12.81
2023-03-29T01:15:27.679Z,13.11
2023-03-29T01:17:54.131Z,13.28
2023-03-29T01:20:20.533Z,13.20
2023-03-29T01:22:46.891Z,13.13
2023-03-29T01:25:13.265Z,12.68
2023-03-29T01:27:39.660Z,13.13
2023-03-29T01:30:06.062Z,13.02
2023-03-29T01:32:32.466Z,13.22
2023-03-29T01:34:58.835Z,13.28
2023-03-29T01:37:25.209Z,13.27
2023-03-29T01:39:51.569Z,12.99
2023-03-29T01:42:17.942Z,12.89
2023-03-29T01:44:44.288Z,13.04
2023-03-29T01:47:10.685Z,13.31
2023-03-29T01:49:37.067Z,13.34
2023-03-29T01:52:03.512Z,13.27
2023-03-29T01:54:29.888Z,13.25
2023-03-29T01:56:56.289Z,12.93
2023-03-29T01:59:22.770Z,12.99
2023-03-29T02:01:49.598Z,13.02
2023-03-29T02:04:16.038Z,13.14
2023-03-29T02:06:42.446Z,13.04
2023-03-29T02:09:08.877Z,12.67
2023-03-29T02:11:35.389Z,12.90
2023-03-29T02:14:01.759Z,12.90
2023-03-29T02:16:28.140Z,13.07
2023-03-29T02:18:54.575Z,13.04
2023-03-29T02:21:21.026Z,13.29
2023-03-29T02:23:47.413Z,13.49
2023-03-29T02:26:13.773Z,13.68
2023-03-29T02:28:40.142Z,13.54
2023-03-29T02:31:06.725Z,13.38
2023-03-29T02:33:33.154Z,13.09
2023-03-29T02:35:59.553Z,13.06
2023-03-29T02:38:26.015Z,13.41
2023-03-29T02:40:52.417Z,13.27
2023-03-29T02:43:18.798Z,13.43
2023-03-29T02:45:45.276Z,13.40
2023-03-29T02:48:11.684Z,13.56
2023-03-29T02:50:38.114Z,13.63
2023-03-29T02:53:04.474Z,13.69
2023-03-29T02:55:30.858Z,13.79
2023-03-29T02:57:57.280Z,13.73
2023-03-29T03:00:23.669Z,13.68
2023-03-29T03:02:50.226Z,13.57
2023-03-29T03:05:16.669Z,13.64
2023-03-29T03:07:43.076Z,13.41
2023-03-29T03:10:09.443Z,13.63
2023-03-29T03:12:35.827Z,13.76
2023-03-29T03:15:02.403Z,13.42
2023-03-29T03:17:29.074Z,13.21
2023-03-29T03:19:55.439Z,13.39
2023-03-29T03:22:21.847Z,13.04
2023-03-29T03:24:48.229Z,13.29
2023-03-29T03:27:14.597Z,13.24
2023-03-29T03:29:40.989Z,13.08
2023-03-29T03:32:07.510Z,13.05
2023-03-29T03:34:34.257Z,12.96
2023-03-29T03:37:02.458Z,13.07
2023-03-29T03:39:28.869Z,13.13
2023-03-29T03:41:55.239Z,13.37
2023-03-29T03:44:21.617Z,13.51
2023-03-29T03:46:47.985Z,13.72
2023-03-29T03:49:14.355Z,13.83
2023-03-29T03:51:40.737Z,13.78
2023-03-29T03:54:07.099Z,13.73
2023-03-29T03:56:33.478Z,13.75
2023-03-29T03:58:59.852Z,13.81
2023-03-29T04:01:26.237Z,13.55
2023-03-29T04:03:52.672Z,13.55
2023-03-29T04:06:19.054Z,13.39
2023-03-29T04:08:45.550Z,13.44
2023-03-29T04:11:12.052Z,13.37
2023-03-29T04:13:38.444Z,13.44
2023-03-29T04:16:05.030Z,13.49
2023-03-29T04:18:31.593Z,13.42
2023-03-29T04:20:58.044Z,13.43
2023-03-29T04:23:24.437Z,13.64
2023-03-29T04:25:50.845Z,13.70
2023-03-29T04:28:17.261Z,13.77
2023-03-29T04:30:43.625Z,13.80
2023-03-29T04:33:10.061Z,13.86
2023-03-29T04:35:36.509Z,13.90
2023-03-29T04:38:02.935Z,13.93
2023-03-29T04:40:29.282Z,13.94
2023-03-29T04:42:55.626Z,13.97
2023-03-29T04:45:22.128Z,13.95
2023-03-29T04:47:51.968Z,13.98
2023-03-29T04:50:18.388Z,13.90
2023-03-29T04:52:44.752Z,13.92
2023-03-29T04:55:11.124Z,13.97
2023-03-29T04:57:37.545Z,13.93
2023-03-29T05:00:03.923Z,13.97
2023-03-29T05:02:30.364Z,13.99
2023-03-29T05:04:56.904Z,14.06
2023-03-29T05:07:23.267Z,14.04
2023-03-29T05:09:49.622Z,13.67
2023-03-29T05:12:16.003Z,13.77
2023-03-29T05:14:43.583Z,13.89
2023-03-29T05:17:09.948Z,14.01
2023-03-29T05:19:36.360Z,13.96
2023-03-29T05:22:02.858Z,14.06
2023-03-29T05:24:29.257Z,13.73
2023-03-29T05:26:55.697Z,13.74
2023-03-29T05:29:22.123Z,13.60
2023-03-29T05:31:48.562Z,13.57
2023-03-29T05:34:15.000Z,13.59
2023-03-29T05:36:41.373Z,13.60
2023-03-29T05:39:07.762Z,13.42
2023-03-29T05:41:34.139Z,13.44
2023-03-29T05:44:00.606Z,13.58
2023-03-29T05:46:27.173Z,13.23
2023-03-29T05:48:53.688Z,12.87
2023-03-29T05:51:20.057Z,13.14
2023-03-29T05:53:46.565Z,13.01
2023-03-29T05:56:12.949Z,13.27
2023-03-29T05:58:39.332Z,13.42
2023-03-29T06:01:05.771Z,13.46
2023-03-29T06:03:32.368Z,13.72
2023-03-29T06:05:58.942Z,13.60
2023-03-29T06:08:25.371Z,13.74
2023-03-29T06:10:51.798Z,13.76
2023-03-29T06:13:18.639Z,13.84
2023-03-29T06:15:45.140Z,13.82
2023-03-29T06:18:11.762Z,13.83
2023-03-29T06:20:38.173Z,13.93
2023-03-29T06:23:04.714Z,13.82
2023-03-29T06:25:31.104Z,14.07
2023-03-29T06:27:58.393Z,13.83
2023-03-29T06:30:24.772Z,13.64
2023-03-29T06:32:51.149Z,13.64
2023-03-29T06:35:17.658Z,13.72
2023-03-29T06:37:44.010Z,13.84
2023-03-29T06:40:10.519Z,13.79
2023-03-29T06:42:36.926Z,14.12
2023-03-29T06:45:06.615Z,14.36
2023-03-29T06:47:33.018Z,14.37
2023-03-29T06:49:59.439Z,14.15
2023-03-29T06:52:26.319Z,13.71
2023-03-29T06:54:52.910Z,13.87
2023-03-29T06:57:19.328Z,13.61
2023-03-29T06:59:45.894Z,13.52
2023-03-29T07:02:12.624Z,13.76
2023-03-29T07:04:39.260Z,13.33
2023-03-29T07:07:05.671Z,13.77
2023-03-29T07:09:32.247Z,13.83
2023-03-29T07:11:58.666Z,14.26
2023-03-29T07:14:25.375Z,14.39
2023-03-29T07:16:51.829Z,14.27
2023-03-29T07:19:18.245Z,14.09
2023-03-29T07:21:44.618Z,14.22
2023-03-29T07:24:11.165Z,14.53
2023-03-29T07:26:38.000Z,14.87
2023-03-29T07:29:04.391Z,14.98
2023-03-29T07:31:30.849Z,15.13
2023-03-29T07:33:57.478Z,15.20
2023-03-29T07:36:24.089Z,15.32
2023-03-29T07:38:50.697Z,15.44
2023-03-29T07:41:17.062Z,15.36
2023-03-29T07:43:43.472Z,15.14
2023-03-29T07:46:10.002Z,15.02
2023-03-29T07:48:36.574Z,15.22
2023-03-29T07:51:03.130Z,15.09
2023-03-29T07:53:29.870Z,15.30
2023-03-29T07:55:56.527Z,15.37
2023-03-29T07:58:22.948Z,15.41
2023-03-29T08:00:49.415Z,15.56
2023-03-29T08:03:15.929Z,15.57
2023-03-29T08:05:42.460Z,15.58
2023-03-29T08:08:08.883Z,15.64
2023-03-29T08:10:35.314Z,15.80
2023-03-29T08:13:01.758Z,15.94
2023-03-29T08:15:28.216Z,15.94
2023-03-29T08:17:54.747Z,16.05
2023-03-29T08:20:21.264Z,15.64
2023-03-29T08:22:47.709Z,15.69
2023-03-29T08:25:14.121Z,15.41
2023-03-29T08:27:40.543Z,15.62
2023-03-29T08:30:07.015Z,15.59
2023-03-29T08:32:33.459Z,15.70
2023-03-29T08:34:59.898Z,15.45
2023-03-29T08:37:26.291Z,15.65
2023-03-29T08:39:52.698Z,15.86
2023-03-29T08:42:19.096Z,16.21
2023-03-29T08:44:45.609Z,16.41
2023-03-29T08:47:11.988Z,16.62
2023-03-29T08:49:38.567Z,16.81
2023-03-29T08:52:04.928Z,16.91
2023-03-29T08:54:31.298Z,16.59
2023-03-29T08:56:57.721Z,16.56
2023-03-29T08:59:24.163Z,17.00
2023-03-29T09:01:50.610Z,17.04
2023-03-29T09:04:16.997Z,17.31
2023-03-29T09:06:43.396Z,17.22
2023-03-29T09:09:09.874Z,17.18
2023-03-29T09:11:36.292Z,17.22
2023-03-29T09:14:02.758Z,17.19
2023-03-29T09:16:29.282Z,17.19
2023-03-29T09:18:55.796Z,17.21
2023-03-29T09:21:22.263Z,17.32
2023-03-29T09:23:48.721Z,17.38
2023-03-29T09:26:15.106Z,17.69
2023-03-29T09:28:41.472Z,17.78
2023-03-29T09:31:08.019Z,17.82
2023-03-29T09:33:34.442Z,17.37
2023-03-29T09:36:01.018Z,17.56
2023-03-29T09:38:27.437Z,17.90
2023-03-29T09:40:53.852Z,18.22
2023-03-29T09:43:20.214Z,18.00
2023-03-29T09:45:46.628Z,18.30
2023-03-29T09:48:13.160Z,18.48
2023-03-29T09:50:39.578Z,18.21
2023-03-29T09:53:05.970Z,17.59
2023-03-29T09:55:32.507Z,17.83
2023-03-29T09:57:59.073Z,17.86
2023-03-29T10:00:25.949Z,18.26
2023-03-29T10:02:52.549Z,18.05
2023-03-29T10:05:19.127Z,17.86
2023-03-29T10:07:45.527Z,17.66
2023-03-29T10:10:11.999Z,17.45
2023-03-29T10:12:38.392Z,17.91
2023-03-29T10:15:04.948Z,17.97
2023-03-29T10:17:31.409Z,18.02
2023-03-29T10:19:57.971Z,18.34
2023-03-29T10:22:24.374Z,18.57
2023-03-29T10:24:50.809Z,18.76
2023-03-29T10:27:17.237Z,18.93
2023-03-29T10:29:43.636Z,18.91
2023-03-29T10:32:10.079Z,18.87
2023-03-29T10:34:36.579Z,18.98
2023-03-29T10:37:03.072Z,19.01
2023-03-29T10:39:29.459Z,18.82
2023-03-29T10:41:55.846Z,18.46
2023-03-29T10:44:22.208Z,18.34
2023-03-29T10:46:48.621Z,18.22
2023-03-29T10:49:15.095Z,18.50
2023-03-29T10:51:41.481Z,18.67
2023-03-29T10:54:07.995Z,19.10
2023-03-29T10:56:34.381Z,18.82
2023-03-29T10:59:00.868Z,18.66
2023-03-29T11:01:27.281Z,18.88
2023-03-29T11:03:53.951Z,19.30
2023-03-29T11:06:20.801Z,19.69
2023-03-29T11:08:47.324Z,19.82
2023-03-29T11:11:13.767Z,19.93
2023-03-29T11:13:40.166Z,19.94
2023-03-29T11:16:06.625Z,19.91
2023-03-29T11:18:33.025Z,19.81
2023-03-29T11:20:59.436Z,19.78
2023-03-29T11:23:25.950Z,19.76
2023-03-29T11:25:52.414Z,19.21
2023-03-29T11:28:18.895Z,19.43
2023-03-29T11:30:45.340Z,19.46
2023-03-29T11:33:11.985Z,19.52
2023-03-29T11:35:38.421Z,19.34
2023-03-29T11:38:04.848Z,19.40
2023-03-29T11:40:31.269Z,19.45
2023-03-29T11:42:57.752Z,19.57
2023-03-29T11:45:24.128Z,19.72
2023-03-29T11:47:50.623Z,19.82
2023-03-29T11:50:17.062Z,19.91
2023-03-29T11:52:43.459Z,20.03
2023-03-29T11:55:09.944Z,19.46
2023-03-29T11:57:36.334Z,19.88
2023-03-29T12:00:02.833Z,20.04
2023-03-29T12:02:29.399Z,20.43
2023-03-29T12:04:58.768Z,20.52
2023-03-29T12:07:25.191Z,20.59
2023-03-29T12:09:51.749Z,20.84
2023-03-29T12:12:18.153Z,20.84
2023-03-29T12:14:44.725Z,20.41
2023-03-29T12:17:12.901Z,20.47
2023-03-29T12:19:42.689Z,20.59
2023-03-29T12:22:09.954Z,20.39
2023-03-29T12:24:36.319Z,20.53
2023-03-29T12:27:02.875Z,20.90
2023-03-29T12:29:29.282Z,20.69
2023-03-29T12:31:55.812Z,20.44
2023-03-29T12:34:22.186Z,20.21
2023-03-29T12:36:48.685Z,20.82
2023-03-29T12:39:15.076Z,21.22
2023-03-29T12:41:41.492Z,21.49
2023-03-29T12:44:10.252Z,21.88
2023-03-29T12:46:37.187Z,22.08
2023-03-29T12:49:03.594Z,21.92
2023-03-29T12:51:29.989Z,21.86
2023-03-29T12:53:56.461Z,21.97
2023-03-29T12:56:22.825Z,22.01
2023-03-29T12:58:49.356Z,22.03
2023-03-29T13:01:15.894Z,21.96
2023-03-29T13:03:42.371Z,21.77
2023-03-29T13:06:08.723Z,21.75
2023-03-29T13:08:35.117Z,21.44
2023-03-29T13:11:01.564Z,21.47
2023-03-29T13:13:27.956Z,21.54
2023-03-29T13:15:54.617Z,21.42
2023-03-29T13:18:21.062Z,21.43
2023-03-29T13:20:50.384Z,21.41
2023-03-29T13:23:17.768Z,21.52
2023-03-29T13:25:44.516Z,21.58
2023-03-29T13:28:10.906Z,21.80
2023-03-29T13:30:37.290Z,21.99
2023-03-29T13:33:03.722Z,22.11
2023-03-29T13:35:30.201Z,22.18
2023-03-29T13:37:56.571Z,22.08
2023-03-29T13:40:22.939Z,22.00
2023-03-29T13:42:49.479Z,21.81
2023-03-29T13:45:15.998Z,21.60
2023-03-29T13:47:48.939Z,21.83
2023-03-29T13:50:24.993Z,22.18
2023-03-29T13:52:51.418Z,22.22
2023-03-29T13:55:17.790Z,22.40
2023-03-29T13:57:44.467Z,22.15
2023-03-29T14:00:10.853Z,21.98
2023-03-29T14:02:37.363Z,22.34
2023-03-29T14:05:03.813Z,22.25
2023-03-29T14:07:30.243Z,22.29
2023-03-29T14:09:56.674Z,22.45
2023-03-29T14:12:23.322Z,22.45
2023-03-29T14:14:58.708Z,22.58
2023-03-29T14:17:25.923Z,22.27
2023-03-29T14:19:52.303Z,22.70
2023-03-29T14:22:18.771Z,22.82
2023-03-29T14:24:45.156Z,22.96
2023-03-29T14:27:11.550Z,23.11
2023-03-29T14:29:38.041Z,23.25
2023-03-29T14:32:04.471Z,23.14
2023-03-29T14:34:31.030Z,23.17
2023-03-29T14:36:57.463Z,23.09
2023-03-29T14:39:23.981Z,23.03
2023-03-29T14:41:50.386Z,23.21
2023-03-29T14:44:16.830Z,23.12
2023-03-29T14:46:43.294Z,23.02
2023-03-29T14:49:09.819Z,23.01
2023-03-29T14:51:36.354Z,22.99
2023-03-29T14:54:02.729Z,23.05
2023-03-29T14:56:29.169Z,23.03
2023-03-29T14:58:55.582Z,23.07
2023-03-29T15:01:21.978Z,22.89
2023-03-29T15:03:48.437Z,22.73
2023-03-29T15:06:14.885Z,22.58
2023-03-29T15:08:44.093Z,22.52
2023-03-29T15:11:17.431Z,22.51
2023-03-29T15:13:43.886Z,22.49
2023-03-29T15:16:10.608Z,22.48
2023-03-29T15:18:37.201Z,22.40
2023-03-29T15:21:03.649Z,22.43
2023-03-29T15:23:30.314Z,22.39
2023-03-29T15:25:56.753Z,22.30
2023-03-29T15:28:23.151Z,22.31
2023-03-29T15:30:57.398Z,22.30
2023-03-29T15:33:31.446Z,22.42
2023-03-29T15:35:58.052Z,22.65
2023-03-29T15:38:33.167Z,22.89
2023-03-29T15:41:07.222Z,22.83
2023-03-29T15:43:33.963Z,22.78
2023-03-29T15:46:00.650Z,22.85
2023-03-29T15:48:27.076Z,22.96
2023-03-29T15:50:53.561Z,23.12
2023-03-29T15:53:19.942Z,23.53
2023-03-29T15:55:46.495Z,23.94
2023-03-29T15:58:13.099Z,24.33
2023-03-29T16:00:39.655Z,24.13
2023-03-29T16:03:06.068Z,23.90
2023-03-29T16:05:32.451Z,23.59
2023-03-29T16:07:58.844Z,23.33
2023-03-29T16:10:25.307Z,23.03
2023-03-29T16:12:51.694Z,22.49
2023-03-29T16:15:18.072Z,22.02
2023-03-29T16:17:44.477Z,21.86
2023-03-29T16:20:10.858Z,21.66
2023-03-29T16:22:37.365Z,21.39
2023-03-29T16:25:03.907Z,21.21
2023-03-29T16:27:30.362Z,21.13
2023-03-29T16:29:56.817Z,20.83
2023-03-29T16:32:23.326Z,20.77
2023-03-29T16:34:49.756Z,20.55
2023-03-29T16:37:16.142Z,20.31
2023-03-29T16:39:42.566Z,20.03
2023-03-29T16:42:08.954Z,19.79
2023-03-29T16:44:35.432Z,19.66
2023-03-29T16:47:01.796Z,19.43
2023-03-29T16:49:28.167Z,19.28
2023-03-29T16:51:54.607Z,19.18
2023-03-29T16:54:20.995Z,19.06
2023-03-29T16:56:47.458Z,19.18
2023-03-29T16:59:14.085Z,19.20
2023-03-29T17:01:40.680Z,19.17
2023-03-29T17:04:07.286Z,19.03
2023-03-29T17:06:33.692Z,18.97
2023-03-29T17:09:00.113Z,18.82
2023-03-29T17:11:26.808Z,18.69
2023-03-29T17:13:53.272Z,18.75
2023-03-29T17:16:19.720Z,18.66
2023-03-29T17:18:46.161Z,18.50
2023-03-29T17:21:12.704Z,18.42
2023-03-29T17:23:39.079Z,18.42
2023-03-29T17:26:05.605Z,18.44
2023-03-29T17:28:32.061Z,18.43
2023-03-29T17:30:58.450Z,18.28
2023-03-29T17:33:24.831Z,18.31
2023-03-29T17:35:51.304Z,18.32
2023-03-29T17:38:17.827Z,18.17
2023-03-29T17:40:44.240Z,18.13
2023-03-29T17:43:10.648Z,17.91
2023-03-29T17:45:37.028Z,17.79
2023-03-29T17:48:06.072Z,17.77
2023-03-29T17:50:33.125Z,17.80
2023-03-29T17:52:59.795Z,17.84
2023-03-29T17:55:26.161Z,17.82
2023-03-29T17:57:52.543Z,17.66
2023-03-29T18:00:18.951Z,17.82
2023-03-29T18:02:45.485Z,17.80
2023-03-29T18:05:11.949Z,17.76
2023-03-29T18:07:38.344Z,17.73
2023-03-29T18:10:04.725Z,17.71
2023-03-29T18:12:31.216Z,17.67
2023-03-29T18:14:57.623Z,17.68
2023-03-29T18:17:24.117Z,17.67
2023-03-29T18:19:50.514Z,17.66
2023-03-29T18:22:16.909Z,17.61
2023-03-29T18:24:43.318Z,17.41
2023-03-29T18:27:09.702Z,17.44
2023-03-29T18:29:36.151Z,17.42
2023-03-29T18:32:02.693Z,17.35
2023-03-29T18:34:29.199Z,17.26
2023-03-29T18:36:55.554Z,17.02
2023-03-29T18:39:21.941Z,16.96
2023-03-29T18:41:48.314Z,17.04
2023-03-29T18:44:14.694Z,17.04
2023-03-29T18:46:41.192Z,17.02
2023-03-29T18:49:07.747Z,17.17
2023-03-29T18:51:34.169Z,17.13
2023-03-29T18:54:00.639Z,17.18
2023-03-29T18:56:27.074Z,17.14
2023-03-29T18:58:53.539Z,17.10
2023-03-29T19:01:19.974Z,17.13
2023-03-29T19:03:46.437Z,17.08
2023-03-29T19:06:12.944Z,17.14
2023-03-29T19:08:39.442Z,16.95
2023-03-29T19:11:05.850Z,17.07
2023-03-29T19:13:32.256Z,17.08
2023-03-29T19:15:58.782Z,17.08
2023-03-29T19:18:25.216Z,17.07
2023-03-29T19:20:51.650Z,17.18
2023-03-29T19:23:18.096Z,17.24
2023-03-29T19:25:44.554Z,17.31
2023-03-29T19:28:10.952Z,17.32
2023-03-29T19:30:37.406Z,17.35
2023-03-29T19:33:03.864Z,17.36
2023-03-29T19:35:30.374Z,17.41
2023-03-29T19:37:56.902Z,17.46
2023-03-29T19:40:23.279Z,17.21
2023-03-29T19:42:49.789Z,17.21
2023-03-29T19:45:16.306Z,17.23
2023-03-29T19:47:42.977Z,17.37
2023-03-29T19:50:09.516Z,17.42
2023-03-29T19:52:36.008Z,17.42
2023-03-29T19:55:02.412Z,17.46
2023-03-29T19:57:28.828Z,17.44
2023-03-29T19:59:55.426Z,17.52
2023-03-29T20:02:21.896Z,17.51
2023-03-29T20:04:48.267Z,17.60
2023-03-29T20:07:14.654Z,17.55
2023-03-29T20:09:42.685Z,17.45
2023-03-29T20:12:10.285Z,17.43
2023-03-29T20:14:36.662Z,17.38
2023-03-29T20:17:03.093Z,17.29
2023-03-29T20:19:29.487Z,17.11
2023-03-29T20:21:55.862Z,16.84
2023-03-29T20:24:22.247Z,16.94
2023-03-29T20:26:48.627Z,17.06
2023-03-29T20:29:15.050Z,17.16
2023-03-29T20:31:41.448Z,17.17
2023-03-29T20:34:07.813Z,17.22
2023-03-29T20:36:34.240Z,17.22
2023-03-29T20:39:00.672Z,17.15
2023-03-29T20:41:27.092Z,17.17
2023-03-29T20:43:53.467Z,17.19
2023-03-29T20:46:19.865Z,17.27
2023-03-29T20:48:46.240Z,17.26
2023-03-29T20:51:12.604Z,17.21
2023-03-29T20:53:39.063Z,17.00
2023-03-29T20:56:05.439Z,17.14
2023-03-29T20:58:31.817Z,17.18
2023-03-29T21:00:58.209Z,17.08
2023-03-29T21:03:24.717Z,16.87
2023-03-29T21:05:51.152Z,16.71
2023-03-29T21:08:17.538Z,16.55
2023-03-29T21:10:45.098Z,16.59
2023-03-29T21:13:11.447Z,16.60
2023-03-29T21:15:37.867Z,16.51
2023-03-29T21:18:04.278Z,16.54
2023-03-29T21:20:30.762Z,16.46
2023-03-29T21:22:57.244Z,16.39
2023-03-29T21:25:23.650Z,16.64
2023-03-29T21:27:50.088Z,16.77
2023-03-29T21:30:16.479Z,16.90
2023-03-29T21:32:42.944Z,16.90
2023-03-29T21:35:09.407Z,16.83
2023-03-29T21:37:35.778Z,16.93
2023-03-29T21:40:02.144Z,17.04
2023-03-29T21:42:28.565Z,17.13
2023-03-29T21:44:55.101Z,17.15
2023-03-29T21:47:21.666Z,17.14
2023-03-29T21:49:48.075Z,17.15
2023-03-29T21:52:14.502Z,17.10
2023-03-29T21:54:41.057Z,17.14
2023-03-29T21:57:07.564Z,17.14
2023-03-29T21:59:34.136Z,17.17
2023-03-29T22:02:00.564Z,17.10
2023-03-29T22:04:36.059Z,17.16
2023-03-29T22:07:03.754Z,17.14
2023-03-29T22:09:30.144Z,17.14
2023-03-29T22:11:56.538Z,17.09
2023-03-29T22:14:22.988Z,17.09
2023-03-29T22:16:49.367Z,17.05
2023-03-29T22:19:15.822Z,17.07
2023-03-29T22:21:42.253Z,17.05
2023-03-29T22:24:08.642Z,17.02
2023-03-29T22:26:35.164Z,17.06
2023-03-29T22:29:01.570Z,17.02
2023-03-29T22:31:28.035Z,17.02
2023-03-29T22:33:54.481Z,16.97
2023-03-29T22:36:20.851Z,16.98
2023-03-29T22:38:47.273Z,16.91
2023-03-29T22:41:13.646Z,16.92
2023-03-29T22:43:40.012Z,16.94
2023-03-29T22:46:06.422Z,16.95
2023-03-29T22:48:32.905Z,16.98
2023-03-29T22:50:59.279Z,16.90
2023-03-29T22:53:25.658Z,16.84
2023-03-29T22:55:52.144Z,16.89
2023-03-29T22:58:18.536Z,16.91
2023-03-29T23:00:44.961Z,16.92
2023-03-29T23:03:11.495Z,16.92
2023-03-29T23:05:37.879Z,16.96
2023-03-29T23:08:04.253Z,16.94
2023-03-29T23:10:30.741Z,16.96
2023-03-29T23:12:57.125Z,16.99
2023-03-29T23:15:23.512Z,16.90
2023-03-29T23:17:49.937Z,16.95
2023-03-29T23:20:16.365Z,16.72
2023-03-29T23:22:42.739Z,16.67
2023-03-29T23:25:09.135Z,16.63
2023-03-29T23:27:35.522Z,16.70
2023-03-29T23:30:01.937Z,16.67
2023-03-29T23:32:28.321Z,16.69
2023-03-29T23:34:54.728Z,16.72
2023-03-29T23:37:21.099Z,16.71
2023-03-29T23:39:47.488Z,16.71
2023-03-29T23:42:13.864Z,16.64
2023-03-29T23:44:40.264Z,16.62
2023-03-29T23:47:06.727Z,16.28
2023-03-29T23:49:33.142Z,16.43
2023-03-29T23:51:59.525Z,16.59
2023-03-29T23:54:25.916Z,16.59
2023-03-29T23:56:52.298Z,16.61
2023-03-29T23:59:18.752Z,16.46
